sensor_id;sensor_type;location;lat;lon;timestamp;P1;durP1;ratioP1;P2;durP2;ratioP2
49852;SDS011;35751;48.072;11.688;2022-08-19T00:01:27;6.35;;;5.68;;
49852;SDS011;35751;48.072;11.688;2022-08-19T00:03:54;8.45;;;5.95;;
49852;SDS011;35751;48.072;11.688;2022-08-19T00:06:23;6.47;;;4.78;;
49852;SDS011;35751;48.072;11.688;2022-08-19T00:08:48;7.15;;;4.35;;
49852;SDS011;35751;48.072;11.688;2022-08-19T00:11:16;6.63;;;4.65;;
49852;SDS011;35751;48.072;11.688;2022-08-19T00:13:41;5.97;;;4.50;;
49852;SDS011;35751;48.072;11.688;2022-08-19T00:16:07;4.40;;;3.95;;
49852;SDS011;35751;48.072;11.688;2022-08-19T00:18:32;5.03;;;4.22;;
49852;SDS011;35751;48.072;11.688;2022-08-19T00:20:58;4.53;;;4.10;;
49852;SDS011;35751;48.072;11.688;2022-08-19T00:23:24;4.68;;;3.92;;
49852;SDS011;35751;48.072;11.688;2022-08-19T00:25:50;5.53;;;4.28;;
49852;SDS011;35751;48.072;11.688;2022-08-19T00:28:15;4.25;;;3.55;;
49852;SDS011;35751;48.072;11.688;2022-08-19T00:30:41;4.43;;;3.83;;
49852;SDS011;35751;48.072;11.688;2022-08-19T00:33:06;5.65;;;4.30;;
49852;SDS011;35751;48.072;11.688;2022-08-19T00:35:33;5.18;;;4.47;;
49852;SDS011;35751;48.072;11.688;2022-08-19T00:37:58;4.97;;;3.83;;
49852;SDS011;35751;48.072;11.688;2022-08-19T00:40:24;4.72;;;4.07;;
49852;SDS011;35751;48.072;11.688;2022-08-19T00:42:50;5.15;;;4.05;;
49852;SDS011;35751;48.072;11.688;2022-08-19T00:45:19;4.45;;;3.83;;
49852;SDS011;35751;48.072;11.688;2022-08-19T00:47:46;4.55;;;3.92;;
49852;SDS011;35751;48.072;11.688;2022-08-19T00:50:12;5.07;;;3.65;;
49852;SDS011;35751;48.072;11.688;2022-08-19T00:52:40;5.68;;;4.53;;
49852;SDS011;35751;48.072;11.688;2022-08-19T00:55:10;4.85;;;4.32;;
49852;SDS011;35751;48.072;11.688;2022-08-19T00:57:46;5.88;;;4.63;;
49852;SDS011;35751;48.072;11.688;2022-08-19T01:00:15;4.50;;;3.88;;
49852;SDS011;35751;48.072;11.688;2022-08-19T01:02:41;5.30;;;3.80;;
49852;SDS011;35751;48.072;11.688;2022-08-19T01:05:08;4.47;;;3.65;;
49852;SDS011;35751;48.072;11.688;2022-08-19T01:07:36;5.20;;;4.53;;
49852;SDS011;35751;48.072;11.688;2022-08-19T01:10:04;6.22;;;4.60;;
49852;SDS011;35751;48.072;11.688;2022-08-19T01:12:31;5.38;;;4.65;;
49852;SDS011;35751;48.072;11.688;2022-08-19T01:14:57;7.22;;;4.43;;
49852;SDS011;35751;48.072;11.688;2022-08-19T01:17:23;7.15;;;4.65;;
49852;SDS011;35751;48.072;11.688;2022-08-19T01:19:49;6.00;;;5.20;;
49852;SDS011;35751;48.072;11.688;2022-08-19T01:24:49;7.65;;;4.70;;
49852;SDS011;35751;48.072;11.688;2022-08-19T01:27:15;5.88;;;4.57;;
49852;SDS011;35751;48.072;11.688;2022-08-19T01:29:41;5.72;;;3.95;;
49852;SDS011;35751;48.072;11.688;2022-08-19T01:32:07;6.53;;;5.10;;
49852;SDS011;35751;48.072;11.688;2022-08-19T01:34:34;5.85;;;4.63;;
49852;SDS011;35751;48.072;11.688;2022-08-19T01:37:00;5.05;;;3.75;;
49852;SDS011;35751;48.072;11.688;2022-08-19T01:39:32;4.57;;;3.83;;
49852;SDS011;35751;48.072;11.688;2022-08-19T01:41:58;5.50;;;4.38;;
49852;SDS011;35751;48.072;11.688;2022-08-19T01:44:23;5.45;;;3.85;;
49852;SDS011;35751;48.072;11.688;2022-08-19T01:46:49;5.05;;;3.92;;
49852;SDS011;35751;48.072;11.688;2022-08-19T01:49:16;5.03;;;4.10;;
49852;SDS011;35751;48.072;11.688;2022-08-19T01:51:43;6.13;;;4.07;;
49852;SDS011;35751;48.072;11.688;2022-08-19T01:54:08;6.50;;;4.57;;
49852;SDS011;35751;48.072;11.688;2022-08-19T01:56:35;4.65;;;3.65;;
49852;SDS011;35751;48.072;11.688;2022-08-19T01:59:02;4.85;;;3.60;;
49852;SDS011;35751;48.072;11.688;2022-08-19T02:01:29;4.50;;;3.95;;
49852;SDS011;35751;48.072;11.688;2022-08-19T02:03:57;7.40;;;4.28;;
49852;SDS011;35751;48.072;11.688;2022-08-19T02:06:23;7.22;;;4.13;;
49852;SDS011;35751;48.072;11.688;2022-08-19T02:08:48;4.32;;;3.80;;
49852;SDS011;35751;48.072;11.688;2022-08-19T02:11:21;4.72;;;4.00;;
49852;SDS011;35751;48.072;11.688;2022-08-19T02:13:48;5.45;;;3.97;;
49852;SDS011;35751;48.072;11.688;2022-08-19T02:16:15;8.00;;;4.38;;
49852;SDS011;35751;48.072;11.688;2022-08-19T02:18:43;5.15;;;4.55;;
49852;SDS011;35751;48.072;11.688;2022-08-19T02:21:10;5.07;;;4.07;;
49852;SDS011;35751;48.072;11.688;2022-08-19T02:23:36;4.88;;;4.25;;
49852;SDS011;35751;48.072;11.688;2022-08-19T02:26:01;5.18;;;3.63;;
49852;SDS011;35751;48.072;11.688;2022-08-19T02:28:26;6.05;;;4.43;;
49852;SDS011;35751;48.072;11.688;2022-08-19T02:30:52;4.10;;;3.42;;
49852;SDS011;35751;48.072;11.688;2022-08-19T02:33:17;5.20;;;3.72;;
49852;SDS011;35751;48.072;11.688;2022-08-19T02:35:46;5.10;;;4.40;;
49852;SDS011;35751;48.072;11.688;2022-08-19T02:38:12;4.95;;;3.33;;
49852;SDS011;35751;48.072;11.688;2022-08-19T02:40:54;4.38;;;3.80;;
49852;SDS011;35751;48.072;11.688;2022-08-19T02:43:25;4.25;;;3.80;;
49852;SDS011;35751;48.072;11.688;2022-08-19T02:45:51;5.55;;;3.90;;
49852;SDS011;35751;48.072;11.688;2022-08-19T02:48:18;4.97;;;3.42;;
49852;SDS011;35751;48.072;11.688;2022-08-19T02:50:44;4.00;;;3.60;;
49852;SDS011;35751;48.072;11.688;2022-08-19T02:53:10;3.92;;;3.22;;
49852;SDS011;35751;48.072;11.688;2022-08-19T02:55:41;4.65;;;3.63;;
49852;SDS011;35751;48.072;11.688;2022-08-19T02:58:10;5.47;;;3.92;;
49852;SDS011;35751;48.072;11.688;2022-08-19T03:00:36;4.60;;;3.53;;
49852;SDS011;35751;48.072;11.688;2022-08-19T03:03:07;4.63;;;3.55;;
49852;SDS011;35751;48.072;11.688;2022-08-19T03:05:32;7.35;;;3.85;;
49852;SDS011;35751;48.072;11.688;2022-08-19T03:07:59;3.65;;;3.00;;
49852;SDS011;35751;48.072;11.688;2022-08-19T03:10:24;4.82;;;3.80;;
49852;SDS011;35751;48.072;11.688;2022-08-19T03:12:49;3.83;;;3.17;;
49852;SDS011;35751;48.072;11.688;2022-08-19T03:15:15;4.53;;;3.88;;
49852;SDS011;35751;48.072;11.688;2022-08-19T03:17:40;5.45;;;3.67;;
49852;SDS011;35751;48.072;11.688;2022-08-19T03:20:06;3.83;;;3.40;;
49852;SDS011;35751;48.072;11.688;2022-08-19T03:22:31;4.85;;;3.80;;
49852;SDS011;35751;48.072;11.688;2022-08-19T03:24:57;4.82;;;3.50;;
49852;SDS011;35751;48.072;11.688;2022-08-19T03:27:24;4.50;;;4.05;;
49852;SDS011;35751;48.072;11.688;2022-08-19T03:29:49;4.35;;;3.50;;
49852;SDS011;35751;48.072;11.688;2022-08-19T03:32:15;3.35;;;3.05;;
49852;SDS011;35751;48.072;11.688;2022-08-19T03:34:41;3.58;;;3.03;;
49852;SDS011;35751;48.072;11.688;2022-08-19T03:37:07;6.20;;;3.38;;
49852;SDS011;35751;48.072;11.688;2022-08-19T03:39:35;4.30;;;3.38;;
49852;SDS011;35751;48.072;11.688;2022-08-19T03:42:01;3.75;;;3.33;;
49852;SDS011;35751;48.072;11.688;2022-08-19T03:44:27;5.75;;;3.30;;
49852;SDS011;35751;48.072;11.688;2022-08-19T03:46:54;3.75;;;3.25;;
49852;SDS011;35751;48.072;11.688;2022-08-19T03:49:21;3.78;;;3.10;;
49852;SDS011;35751;48.072;11.688;2022-08-19T03:51:48;3.25;;;2.95;;
49852;SDS011;35751;48.072;11.688;2022-08-19T03:54:15;5.13;;;3.63;;
49852;SDS011;35751;48.072;11.688;2022-08-19T03:56:43;3.38;;;2.85;;
49852;SDS011;35751;48.072;11.688;2022-08-19T03:59:11;3.75;;;3.25;;
49852;SDS011;35751;48.072;11.688;2022-08-19T04:01:39;4.03;;;3.53;;
49852;SDS011;35751;48.072;11.688;2022-08-19T04:04:04;3.70;;;3.33;;
49852;SDS011;35751;48.072;11.688;2022-08-19T04:06:31;4.35;;;3.05;;
49852;SDS011;35751;48.072;11.688;2022-08-19T04:08:58;4.13;;;3.40;;
49852;SDS011;35751;48.072;11.688;2022-08-19T04:11:28;4.20;;;3.80;;
49852;SDS011;35751;48.072;11.688;2022-08-19T04:13:56;6.03;;;3.97;;
49852;SDS011;35751;48.072;11.688;2022-08-19T04:16:22;5.45;;;4.22;;
49852;SDS011;35751;48.072;11.688;2022-08-19T04:18:50;4.97;;;3.90;;
49852;SDS011;35751;48.072;11.688;2022-08-19T04:21:17;3.92;;;3.47;;
49852;SDS011;35751;48.072;11.688;2022-08-19T04:23:43;4.35;;;3.95;;
49852;SDS011;35751;48.072;11.688;2022-08-19T04:26:16;3.67;;;3.20;;
49852;SDS011;35751;48.072;11.688;2022-08-19T04:28:43;4.28;;;3.78;;
49852;SDS011;35751;48.072;11.688;2022-08-19T04:31:13;4.65;;;3.70;;
49852;SDS011;35751;48.072;11.688;2022-08-19T04:33:40;4.75;;;3.95;;
49852;SDS011;35751;48.072;11.688;2022-08-19T04:36:05;4.90;;;4.13;;
49852;SDS011;35751;48.072;11.688;2022-08-19T04:38:30;4.85;;;4.00;;
49852;SDS011;35751;48.072;11.688;2022-08-19T04:40:56;5.20;;;4.35;;
49852;SDS011;35751;48.072;11.688;2022-08-19T04:43:40;4.80;;;4.18;;
49852;SDS011;35751;48.072;11.688;2022-08-19T04:46:09;6.20;;;4.28;;
49852;SDS011;35751;48.072;11.688;2022-08-19T04:48:36;4.30;;;3.63;;
49852;SDS011;35751;48.072;11.688;2022-08-19T04:51:05;3.83;;;3.47;;
49852;SDS011;35751;48.072;11.688;2022-08-19T04:53:32;5.05;;;4.32;;
49852;SDS011;35751;48.072;11.688;2022-08-19T04:55:59;4.60;;;3.60;;
49852;SDS011;35751;48.072;11.688;2022-08-19T04:58:27;3.78;;;3.40;;
49852;SDS011;35751;48.072;11.688;2022-08-19T05:00:53;4.50;;;4.00;;
49852;SDS011;35751;48.072;11.688;2022-08-19T05:03:18;4.72;;;3.70;;
49852;SDS011;35751;48.072;11.688;2022-08-19T05:05:44;4.60;;;4.13;;
49852;SDS011;35751;48.072;11.688;2022-08-19T05:08:11;8.23;;;4.22;;
49852;SDS011;35751;48.072;11.688;2022-08-19T05:10:37;5.50;;;4.57;;
49852;SDS011;35751;48.072;11.688;2022-08-19T05:13:03;4.97;;;4.38;;
49852;SDS011;35751;48.072;11.688;2022-08-19T05:15:29;5.53;;;4.38;;
49852;SDS011;35751;48.072;11.688;2022-08-19T05:17:55;5.10;;;4.35;;
49852;SDS011;35751;48.072;11.688;2022-08-19T05:20:39;4.38;;;3.47;;
49852;SDS011;35751;48.072;11.688;2022-08-19T05:23:23;4.82;;;4.03;;
49852;SDS011;35751;48.072;11.688;2022-08-19T05:25:48;5.95;;;3.90;;
49852;SDS011;35751;48.072;11.688;2022-08-19T05:28:15;5.20;;;3.80;;
49852;SDS011;35751;48.072;11.688;2022-08-19T05:30:40;5.95;;;4.07;;
49852;SDS011;35751;48.072;11.688;2022-08-19T05:33:08;4.03;;;3.50;;
49852;SDS011;35751;48.072;11.688;2022-08-19T05:35:37;4.28;;;3.70;;
49852;SDS011;35751;48.072;11.688;2022-08-19T05:38:03;4.32;;;3.22;;
49852;SDS011;35751;48.072;11.688;2022-08-19T05:40:28;5.28;;;3.58;;
49852;SDS011;35751;48.072;11.688;2022-08-19T05:42:54;6.20;;;4.13;;
49852;SDS011;35751;48.072;11.688;2022-08-19T05:45:19;4.07;;;3.63;;
49852;SDS011;35751;48.072;11.688;2022-08-19T05:47:46;4.53;;;3.88;;
49852;SDS011;35751;48.072;11.688;2022-08-19T05:50:12;5.15;;;4.10;;
49852;SDS011;35751;48.072;11.688;2022-08-19T05:52:37;5.82;;;4.35;;
49852;SDS011;35751;48.072;11.688;2022-08-19T05:55:03;4.32;;;3.80;;
49852;SDS011;35751;48.072;11.688;2022-08-19T05:57:30;4.47;;;3.75;;
49852;SDS011;35751;48.072;11.688;2022-08-19T05:59:56;5.03;;;3.80;;
49852;SDS011;35751;48.072;11.688;2022-08-19T06:02:22;4.75;;;4.00;;
49852;SDS011;35751;48.072;11.688;2022-08-19T06:04:47;5.53;;;4.53;;
49852;SDS011;35751;48.072;11.688;2022-08-19T06:07:13;5.15;;;4.13;;
49852;SDS011;35751;48.072;11.688;2022-08-19T06:09:39;4.93;;;3.88;;
49852;SDS011;35751;48.072;11.688;2022-08-19T06:12:04;5.85;;;4.95;;
49852;SDS011;35751;48.072;11.688;2022-08-19T06:14:31;8.15;;;4.80;;
49852;SDS011;35751;48.072;11.688;2022-08-19T06:16:59;4.85;;;4.35;;
49852;SDS011;35751;48.072;11.688;2022-08-19T06:19:27;6.47;;;5.00;;
49852;SDS011;35751;48.072;11.688;2022-08-19T06:21:54;6.30;;;5.13;;
49852;SDS011;35751;48.072;11.688;2022-08-19T06:24:22;6.22;;;4.38;;
49852;SDS011;35751;48.072;11.688;2022-08-19T06:26:49;5.95;;;4.57;;
49852;SDS011;35751;48.072;11.688;2022-08-19T06:29:16;5.18;;;4.68;;
49852;SDS011;35751;48.072;11.688;2022-08-19T06:31:44;8.27;;;5.78;;
49852;SDS011;35751;48.072;11.688;2022-08-19T06:34:11;6.28;;;4.90;;
49852;SDS011;35751;48.072;11.688;2022-08-19T06:36:39;7.82;;;5.18;;
49852;SDS011;35751;48.072;11.688;2022-08-19T06:39:09;9.15;;;5.82;;
49852;SDS011;35751;48.072;11.688;2022-08-19T06:41:44;6.97;;;5.70;;
49852;SDS011;35751;48.072;11.688;2022-08-19T06:44:10;9.10;;;6.35;;
49852;SDS011;35751;48.072;11.688;2022-08-19T06:46:37;8.23;;;6.45;;
49852;SDS011;35751;48.072;11.688;2022-08-19T06:49:03;7.40;;;6.50;;
49852;SDS011;35751;48.072;11.688;2022-08-19T06:51:28;8.82;;;6.72;;
49852;SDS011;35751;48.072;11.688;2022-08-19T06:53:56;10.00;;;8.02;;
49852;SDS011;35751;48.072;11.688;2022-08-19T06:56:23;10.07;;;6.50;;
49852;SDS011;35751;48.072;11.688;2022-08-19T06:58:50;8.13;;;6.15;;
49852;SDS011;35751;48.072;11.688;2022-08-19T07:01:17;13.48;;;8.13;;
49852;SDS011;35751;48.072;11.688;2022-08-19T07:03:43;11.30;;;8.55;;
49852;SDS011;35751;48.072;11.688;2022-08-19T07:06:10;11.43;;;8.95;;
49852;SDS011;35751;48.072;11.688;2022-08-19T07:08:37;12.75;;;8.88;;
49852;SDS011;35751;48.072;11.688;2022-08-19T07:11:06;13.73;;;10.23;;
49852;SDS011;35751;48.072;11.688;2022-08-19T07:13:32;15.50;;;10.50;;
49852;SDS011;35751;48.072;11.688;2022-08-19T07:16:05;16.67;;;12.25;;
49852;SDS011;35751;48.072;11.688;2022-08-19T07:18:31;16.73;;;12.32;;
49852;SDS011;35751;48.072;11.688;2022-08-19T07:21:07;20.50;;;12.43;;
49852;SDS011;35751;48.072;11.688;2022-08-19T07:23:35;15.77;;;12.18;;
49852;SDS011;35751;48.072;11.688;2022-08-19T07:26:07;18.30;;;12.82;;
49852;SDS011;35751;48.072;11.688;2022-08-19T07:28:33;18.45;;;13.15;;
49852;SDS011;35751;48.072;11.688;2022-08-19T07:30:59;19.05;;;11.88;;
49852;SDS011;35751;48.072;11.688;2022-08-19T07:33:25;17.20;;;13.25;;
49852;SDS011;35751;48.072;11.688;2022-08-19T07:35:51;20.85;;;14.27;;
49852;SDS011;35751;48.072;11.688;2022-08-19T07:38:17;16.05;;;12.52;;
49852;SDS011;35751;48.072;11.688;2022-08-19T07:40:43;22.40;;;14.25;;
49852;SDS011;35751;48.072;11.688;2022-08-19T07:43:11;23.35;;;16.08;;
49852;SDS011;35751;48.072;11.688;2022-08-19T07:45:36;20.45;;;15.23;;
49852;SDS011;35751;48.072;11.688;2022-08-19T07:48:01;25.02;;;16.48;;
49852;SDS011;35751;48.072;11.688;2022-08-19T07:50:28;22.05;;;14.70;;
49852;SDS011;35751;48.072;11.688;2022-08-19T07:52:54;26.17;;;17.10;;
49852;SDS011;35751;48.072;11.688;2022-08-19T07:55:21;21.50;;;15.15;;
49852;SDS011;35751;48.072;11.688;2022-08-19T07:57:48;20.80;;;15.38;;
49852;SDS011;35751;48.072;11.688;2022-08-19T08:00:14;21.50;;;16.05;;
49852;SDS011;35751;48.072;11.688;2022-08-19T08:02:39;22.42;;;15.48;;
49852;SDS011;35751;48.072;11.688;2022-08-19T08:05:07;21.25;;;14.77;;
49852;SDS011;35751;48.072;11.688;2022-08-19T08:07:51;24.88;;;16.55;;
49852;SDS011;35751;48.072;11.688;2022-08-19T08:10:35;21.02;;;15.02;;
49852;SDS011;35751;48.072;11.688;2022-08-19T08:13:01;21.90;;;16.27;;
49852;SDS011;35751;48.072;11.688;2022-08-19T08:15:27;20.23;;;14.35;;
49852;SDS011;35751;48.072;11.688;2022-08-19T08:17:52;21.38;;;15.25;;
49852;SDS011;35751;48.072;11.688;2022-08-19T08:20:18;22.38;;;16.30;;
49852;SDS011;35751;48.072;11.688;2022-08-19T08:22:44;20.73;;;15.57;;
49852;SDS011;35751;48.072;11.688;2022-08-19T08:25:29;21.60;;;16.67;;
49852;SDS011;35751;48.072;11.688;2022-08-19T08:27:56;25.50;;;17.92;;
49852;SDS011;35751;48.072;11.688;2022-08-19T08:30:23;23.52;;;17.20;;
49852;SDS011;35751;48.072;11.688;2022-08-19T08:32:50;24.88;;;17.60;;
49852;SDS011;35751;48.072;11.688;2022-08-19T08:35:17;25.98;;;17.88;;
49852;SDS011;35751;48.072;11.688;2022-08-19T08:37:44;28.27;;;18.20;;
49852;SDS011;35751;48.072;11.688;2022-08-19T08:40:20;24.48;;;16.98;;
49852;SDS011;35751;48.072;11.688;2022-08-19T08:45:26;23.98;;;16.50;;
49852;SDS011;35751;48.072;11.688;2022-08-19T08:47:52;24.75;;;17.67;;
49852;SDS011;35751;48.072;11.688;2022-08-19T08:50:27;23.13;;;15.88;;
49852;SDS011;35751;48.072;11.688;2022-08-19T08:52:55;25.52;;;16.27;;
49852;SDS011;35751;48.072;11.688;2022-08-19T08:55:23;21.42;;;15.48;;
49852;SDS011;35751;48.072;11.688;2022-08-19T08:57:55;25.67;;;17.50;;
49852;SDS011;35751;48.072;11.688;2022-08-19T09:00:26;23.17;;;16.63;;
49852;SDS011;35751;48.072;11.688;2022-08-19T09:02:54;24.90;;;16.02;;
49852;SDS011;35751;48.072;11.688;2022-08-19T09:05:20;23.52;;;16.45;;
49852;SDS011;35751;48.072;11.688;2022-08-19T09:08:04;23.10;;;16.08;;
49852;SDS011;35751;48.072;11.688;2022-08-19T09:10:34;22.30;;;15.52;;
49852;SDS011;35751;48.072;11.688;2022-08-19T09:16:00;21.75;;;14.18;;
49852;SDS011;35751;48.072;11.688;2022-08-19T09:21:14;19.35;;;14.80;;
49852;SDS011;35751;48.072;11.688;2022-08-19T09:23:40;18.85;;;14.32;;
49852;SDS011;35751;48.072;11.688;2022-08-19T09:26:06;20.02;;;13.27;;
49852;SDS011;35751;48.072;11.688;2022-08-19T09:28:33;17.73;;;12.77;;
49852;SDS011;35751;48.072;11.688;2022-08-19T09:30:59;17.33;;;12.10;;
49852;SDS011;35751;48.072;11.688;2022-08-19T09:33:25;17.23;;;12.32;;
49852;SDS011;35751;48.072;11.688;2022-08-19T09:35:50;16.42;;;12.50;;
49852;SDS011;35751;48.072;11.688;2022-08-19T09:38:28;15.93;;;12.43;;
49852;SDS011;35751;48.072;11.688;2022-08-19T09:40:53;13.68;;;11.15;;
49852;SDS011;35751;48.072;11.688;2022-08-19T09:43:19;17.65;;;12.00;;
49852;SDS011;35751;48.072;11.688;2022-08-19T09:45:44;14.30;;;10.63;;
49852;SDS011;35751;48.072;11.688;2022-08-19T09:48:09;15.18;;;11.02;;
49852;SDS011;35751;48.072;11.688;2022-08-19T09:50:35;15.07;;;10.68;;
49852;SDS011;35751;48.072;11.688;2022-08-19T09:53:03;13.18;;;10.70;;
49852;SDS011;35751;48.072;11.688;2022-08-19T09:55:31;15.20;;;9.07;;
49852;SDS011;35751;48.072;11.688;2022-08-19T09:57:56;12.05;;;9.85;;
49852;SDS011;35751;48.072;11.688;2022-08-19T10:00:21;12.50;;;9.95;;
49852;SDS011;35751;48.072;11.688;2022-08-19T10:02:47;19.75;;;10.05;;
49852;SDS011;35751;48.072;11.688;2022-08-19T10:05:12;14.02;;;8.63;;
49852;SDS011;35751;48.072;11.688;2022-08-19T10:07:56;13.50;;;9.90;;
49852;SDS011;35751;48.072;11.688;2022-08-19T10:10:22;11.15;;;8.90;;
49852;SDS011;35751;48.072;11.688;2022-08-19T10:12:47;12.38;;;9.77;;
49852;SDS011;35751;48.072;11.688;2022-08-19T10:15:13;12.20;;;9.35;;
49852;SDS011;35751;48.072;11.688;2022-08-19T10:17:39;10.85;;;8.55;;
49852;SDS011;35751;48.072;11.688;2022-08-19T10:20:04;11.68;;;9.70;;
49852;SDS011;35751;48.072;11.688;2022-08-19T10:22:30;14.32;;;10.68;;
49852;SDS011;35751;48.072;11.688;2022-08-19T10:24:55;11.85;;;9.55;;
49852;SDS011;35751;48.072;11.688;2022-08-19T10:27:21;12.48;;;9.73;;
49852;SDS011;35751;48.072;11.688;2022-08-19T10:29:47;10.48;;;7.93;;
49852;SDS011;35751;48.072;11.688;2022-08-19T10:32:13;11.48;;;9.32;;
49852;SDS011;35751;48.072;11.688;2022-08-19T10:34:38;10.63;;;9.15;;
49852;SDS011;35751;48.072;11.688;2022-08-19T10:37:04;11.52;;;9.32;;
49852;SDS011;35751;48.072;11.688;2022-08-19T10:39:31;12.98;;;9.85;;
49852;SDS011;35751;48.072;11.688;2022-08-19T10:41:58;11.30;;;8.20;;
49852;SDS011;35751;48.072;11.688;2022-08-19T10:44:23;10.45;;;7.97;;
49852;SDS011;35751;48.072;11.688;2022-08-19T10:46:49;10.23;;;7.55;;
49852;SDS011;35751;48.072;11.688;2022-08-19T10:49:14;7.35;;;6.22;;
49852;SDS011;35751;48.072;11.688;2022-08-19T10:51:40;7.88;;;5.97;;
49852;SDS011;35751;48.072;11.688;2022-08-19T10:54:24;7.20;;;6.25;;
49852;SDS011;35751;48.072;11.688;2022-08-19T10:57:10;7.22;;;5.90;;
49852;SDS011;35751;48.072;11.688;2022-08-19T10:59:36;7.10;;;5.47;;
49852;SDS011;35751;48.072;11.688;2022-08-19T11:02:04;6.13;;;5.00;;
49852;SDS011;35751;48.072;11.688;2022-08-19T11:04:30;7.35;;;6.35;;
49852;SDS011;35751;48.072;11.688;2022-08-19T11:06:56;8.15;;;6.13;;
49852;SDS011;35751;48.072;11.688;2022-08-19T11:09:23;5.88;;;5.22;;
49852;SDS011;35751;48.072;11.688;2022-08-19T11:11:50;5.72;;;5.18;;
49852;SDS011;35751;48.072;11.688;2022-08-19T11:14:17;6.90;;;5.63;;
49852;SDS011;35751;48.072;11.688;2022-08-19T11:16:46;7.50;;;5.10;;
49852;SDS011;35751;48.072;11.688;2022-08-19T11:19:12;6.25;;;5.55;;
49852;SDS011;35751;48.072;11.688;2022-08-19T11:21:43;6.43;;;5.68;;
49852;SDS011;35751;48.072;11.688;2022-08-19T11:24:10;7.50;;;5.82;;
49852;SDS011;35751;48.072;11.688;2022-08-19T11:26:38;6.78;;;5.45;;
49852;SDS011;35751;48.072;11.688;2022-08-19T11:29:04;6.15;;;5.53;;
49852;SDS011;35751;48.072;11.688;2022-08-19T11:31:32;6.95;;;5.45;;
49852;SDS011;35751;48.072;11.688;2022-08-19T11:33:59;5.80;;;4.40;;
49852;SDS011;35751;48.072;11.688;2022-08-19T11:36:27;8.60;;;5.68;;
49852;SDS011;35751;48.072;11.688;2022-08-19T11:38:53;6.97;;;5.30;;
49852;SDS011;35751;48.072;11.688;2022-08-19T11:41:19;4.93;;;4.43;;
49852;SDS011;35751;48.072;11.688;2022-08-19T11:43:46;6.38;;;5.25;;
49852;SDS011;35751;48.072;11.688;2022-08-19T11:46:13;4.45;;;4.03;;
49852;SDS011;35751;48.072;11.688;2022-08-19T11:48:39;4.45;;;4.05;;
49852;SDS011;35751;48.072;11.688;2022-08-19T11:51:06;5.03;;;4.50;;
49852;SDS011;35751;48.072;11.688;2022-08-19T11:53:34;7.45;;;4.65;;
49852;SDS011;35751;48.072;11.688;2022-08-19T11:55:59;5.43;;;4.85;;
49852;SDS011;35751;48.072;11.688;2022-08-19T11:58:25;5.63;;;4.75;;
49852;SDS011;35751;48.072;11.688;2022-08-19T12:00:51;5.88;;;4.97;;
49852;SDS011;35751;48.072;11.688;2022-08-19T12:03:16;5.28;;;4.78;;
49852;SDS011;35751;48.072;11.688;2022-08-19T12:05:43;5.18;;;4.57;;
49852;SDS011;35751;48.072;11.688;2022-08-19T12:08:08;5.30;;;4.72;;
49852;SDS011;35751;48.072;11.688;2022-08-19T12:10:34;5.72;;;5.13;;
49852;SDS011;35751;48.072;11.688;2022-08-19T12:13:00;7.50;;;5.32;;
49852;SDS011;35751;48.072;11.688;2022-08-19T12:15:26;10.10;;;6.80;;
49852;SDS011;35751;48.072;11.688;2022-08-19T12:17:53;7.60;;;6.57;;
49852;SDS011;35751;48.072;11.688;2022-08-19T12:20:21;8.13;;;7.22;;
49852;SDS011;35751;48.072;11.688;2022-08-19T12:22:47;7.32;;;6.63;;
49852;SDS011;35751;48.072;11.688;2022-08-19T12:25:13;7.55;;;6.20;;
49852;SDS011;35751;48.072;11.688;2022-08-19T12:27:39;6.93;;;5.40;;
49852;SDS011;35751;48.072;11.688;2022-08-19T12:30:06;7.10;;;5.30;;
49852;SDS011;35751;48.072;11.688;2022-08-19T12:32:32;6.70;;;5.25;;
49852;SDS011;35751;48.072;11.688;2022-08-19T12:34:58;6.13;;;5.05;;
49852;SDS011;35751;48.072;11.688;2022-08-19T12:37:24;5.35;;;4.38;;
49852;SDS011;35751;48.072;11.688;2022-08-19T12:39:49;4.05;;;3.60;;
49852;SDS011;35751;48.072;11.688;2022-08-19T12:42:14;2.42;;;2.22;;
49852;SDS011;35751;48.072;11.688;2022-08-19T12:44:41;2.35;;;2.08;;
49852;SDS011;35751;48.072;11.688;2022-08-19T12:47:07;2.60;;;2.28;;
49852;SDS011;35751;48.072;11.688;2022-08-19T12:49:35;2.15;;;1.98;;
49852;SDS011;35751;48.072;11.688;2022-08-19T12:52:02;2.13;;;1.92;;
49852;SDS011;35751;48.072;11.688;2022-08-19T12:54:29;3.53;;;2.25;;
49852;SDS011;35751;48.072;11.688;2022-08-19T12:56:55;6.20;;;2.50;;
49852;SDS011;35751;48.072;11.688;2022-08-19T12:59:21;4.65;;;2.30;;
49852;SDS011;35751;48.072;11.688;2022-08-19T13:01:47;3.70;;;2.95;;
49852;SDS011;35751;48.072;11.688;2022-08-19T13:04:12;2.83;;;2.33;;
49852;SDS011;35751;48.072;11.688;2022-08-19T13:06:37;4.10;;;3.13;;
49852;SDS011;35751;48.072;11.688;2022-08-19T13:09:03;2.80;;;1.95;;
49852;SDS011;35751;48.072;11.688;2022-08-19T13:11:29;2.40;;;2.15;;
49852;SDS011;35751;48.072;11.688;2022-08-19T13:13:58;3.10;;;2.80;;
49852;SDS011;35751;48.072;11.688;2022-08-19T13:16:24;3.97;;;2.42;;
49852;SDS011;35751;48.072;11.688;2022-08-19T13:18:51;2.53;;;2.20;;
49852;SDS011;35751;48.072;11.688;2022-08-19T13:21:17;2.92;;;2.38;;
49852;SDS011;35751;48.072;11.688;2022-08-19T13:23:44;2.85;;;1.90;;
49852;SDS011;35751;48.072;11.688;2022-08-19T13:26:10;2.10;;;1.88;;
49852;SDS011;35751;48.072;11.688;2022-08-19T13:28:36;1.80;;;1.70;;
49852;SDS011;35751;48.072;11.688;2022-08-19T13:31:21;1.60;;;1.50;;
49852;SDS011;35751;48.072;11.688;2022-08-19T13:34:06;1.50;;;1.33;;
49852;SDS011;35751;48.072;11.688;2022-08-19T13:36:32;3.05;;;1.40;;
49852;SDS011;35751;48.072;11.688;2022-08-19T13:38:58;1.60;;;1.50;;
49852;SDS011;35751;48.072;11.688;2022-08-19T13:41:24;4.00;;;1.88;;
49852;SDS011;35751;48.072;11.688;2022-08-19T13:43:49;1.55;;;1.42;;
49852;SDS011;35751;48.072;11.688;2022-08-19T13:46:15;2.28;;;1.70;;
49852;SDS011;35751;48.072;11.688;2022-08-19T13:48:40;1.90;;;1.70;;
49852;SDS011;35751;48.072;11.688;2022-08-19T13:51:07;1.58;;;1.17;;
49852;SDS011;35751;48.072;11.688;2022-08-19T13:53:36;2.25;;;1.70;;
49852;SDS011;35751;48.072;11.688;2022-08-19T13:56:06;1.85;;;1.33;;
49852;SDS011;35751;48.072;11.688;2022-08-19T13:58:32;2.95;;;1.45;;
49852;SDS011;35751;48.072;11.688;2022-08-19T14:00:58;2.42;;;1.75;;
49852;SDS011;35751;48.072;11.688;2022-08-19T14:03:24;4.43;;;1.92;;
49852;SDS011;35751;48.072;11.688;2022-08-19T14:05:50;1.85;;;1.73;;
49852;SDS011;35751;48.072;11.688;2022-08-19T14:08:15;1.42;;;1.33;;
49852;SDS011;35751;48.072;11.688;2022-08-19T14:10:41;2.05;;;1.58;;
49852;SDS011;35751;48.072;11.688;2022-08-19T14:13:09;2.10;;;1.90;;
49852;SDS011;35751;48.072;11.688;2022-08-19T14:15:34;1.50;;;1.40;;
49852;SDS011;35751;48.072;11.688;2022-08-19T14:17:59;2.17;;;1.95;;
49852;SDS011;35751;48.072;11.688;2022-08-19T14:20:25;3.38;;;2.05;;
49852;SDS011;35751;48.072;11.688;2022-08-19T14:22:51;2.17;;;1.98;;
49852;SDS011;35751;48.072;11.688;2022-08-19T14:25:19;2.20;;;2.00;;
49852;SDS011;35751;48.072;11.688;2022-08-19T14:27:49;2.00;;;1.80;;
49852;SDS011;35751;48.072;11.688;2022-08-19T14:30:16;2.28;;;2.03;;
49852;SDS011;35751;48.072;11.688;2022-08-19T14:32:43;2.63;;;2.30;;
49852;SDS011;35751;48.072;11.688;2022-08-19T14:35:08;2.30;;;2.10;;
49852;SDS011;35751;48.072;11.688;2022-08-19T14:37:34;2.45;;;2.00;;
49852;SDS011;35751;48.072;11.688;2022-08-19T14:40:01;2.33;;;2.08;;